<?xml version="1.0" encoding="UTF-8" standalone="no" ?>
<gpx xmlns="http://www.topografix.com/GPX/1/1" xmlns:xsi="http://www.w3.org/2001/XMLSchema-instance" xsi:schemaLocation="http://www.topografix.com/GPX/1/1 http://www.topografix.com/GPX/1/1/gpx.xsd" version="1.1" creator="VisuGPX - https://www.visugpx.com">
  <metadata>
    <name>Course à pied dans l'après-midi</name>
  </metadata>
  <trk>
    <name><![CDATA[Course à pied dans l'après-midi_1]]></name>
    <trkseg>
      <trkpt lat="46.83432" lon="6.40032">
        <ele>1088.2</ele>
        <time>2024-01-12T16:39:21Z</time>
      </trkpt>
      <trkpt lat="46.83432" lon="6.40037">
        <ele>1088.3</ele>
        <time>2024-01-12T16:39:23Z</time>
      </trkpt>
      <trkpt lat="46.83414" lon="6.40029">
        <ele>1089.6</ele>
        <time>2024-01-12T16:39:36Z</time>
      </trkpt>
      <trkpt lat="46.83403" lon="6.40025">
        <ele>1090.2</ele>
        <time>2024-01-12T16:39:42Z</time>
      </trkpt>
      <trkpt lat="46.8339" lon="6.40045">
        <ele>1090.9</ele>
        <time>2024-01-12T16:39:47Z</time>
      </trkpt>
      <trkpt lat="46.83381" lon="6.40069">
        <ele>1090.9</ele>
        <time>2024-01-12T16:39:53Z</time>
      </trkpt>
      <trkpt lat="46.8337" lon="6.40092">
        <ele>1090.7</ele>
        <time>2024-01-12T16:40:00Z</time>
      </trkpt>
      <trkpt lat="46.83361" lon="6.40115">
        <ele>1090.6</ele>
        <time>2024-01-12T16:40:06Z</time>
      </trkpt>
      <trkpt lat="46.83351" lon="6.40137">
        <ele>1090.4</ele>
        <time>2024-01-12T16:40:12Z</time>
      </trkpt>
      <trkpt lat="46.83344" lon="6.40163">
        <ele>1090.2</ele>
        <time>2024-01-12T16:40:18Z</time>
      </trkpt>
      <trkpt lat="46.83337" lon="6.40191">
        <ele>1090</ele>
        <time>2024-01-12T16:40:24Z</time>
      </trkpt>
      <trkpt lat="46.8333" lon="6.40218">
        <ele>1090</ele>
        <time>2024-01-12T16:40:31Z</time>
      </trkpt>
      <trkpt lat="46.83323" lon="6.40243">
        <ele>1090</ele>
        <time>2024-01-12T16:40:37Z</time>
      </trkpt>
      <trkpt lat="46.83317" lon="6.4027">
        <ele>1089.8</ele>
        <time>2024-01-12T16:40:44Z</time>
      </trkpt>
      <trkpt lat="46.8331" lon="6.40297">
        <ele>1089.8</ele>
        <time>2024-01-12T16:40:51Z</time>
      </trkpt>
      <trkpt lat="46.83309" lon="6.4031">
        <ele>1089.7</ele>
        <time>2024-01-12T16:40:55Z</time>
      </trkpt>
      <trkpt lat="46.83324" lon="6.40329">
        <ele>1089.7</ele>
        <time>2024-01-12T16:41:03Z</time>
      </trkpt>
      <trkpt lat="46.83341" lon="6.40343">
        <ele>1089.8</ele>
        <time>2024-01-12T16:41:10Z</time>
      </trkpt>
      <trkpt lat="46.8336" lon="6.40353">
        <ele>1090</ele>
        <time>2024-01-12T16:41:18Z</time>
      </trkpt>
      <trkpt lat="46.83376" lon="6.40371">
        <ele>1090.1</ele>
        <time>2024-01-12T16:41:25Z</time>
      </trkpt>
      <trkpt lat="46.83392" lon="6.40388">
        <ele>1090.1</ele>
        <time>2024-01-12T16:41:32Z</time>
      </trkpt>
      <trkpt lat="46.83409" lon="6.40401">
        <ele>1090</ele>
        <time>2024-01-12T16:41:38Z</time>
      </trkpt>
      <trkpt lat="46.83427" lon="6.40411">
        <ele>1088.3</ele>
        <time>2024-01-12T16:41:44Z</time>
      </trkpt>
      <trkpt lat="46.83438" lon="6.40389">
        <ele>1087.6</ele>
        <time>2024-01-12T16:41:50Z</time>
      </trkpt>
      <trkpt lat="46.83444" lon="6.40363">
        <ele>1087.1</ele>
        <time>2024-01-12T16:41:55Z</time>
      </trkpt>
      <trkpt lat="46.83462" lon="6.40363">
        <ele>1087.4</ele>
        <time>2024-01-12T16:42:01Z</time>
      </trkpt>
      <trkpt lat="46.83481" lon="6.40375">
        <ele>1087.4</ele>
        <time>2024-01-12T16:42:07Z</time>
      </trkpt>
      <trkpt lat="46.83499" lon="6.40378">
        <ele>1087.5</ele>
        <time>2024-01-12T16:42:13Z</time>
      </trkpt>
      <trkpt lat="46.8352" lon="6.40372">
        <ele>1087.7</ele>
        <time>2024-01-12T16:42:19Z</time>
      </trkpt>
      <trkpt lat="46.83538" lon="6.40374">
        <ele>1088.1</ele>
        <time>2024-01-12T16:42:24Z</time>
      </trkpt>
      <trkpt lat="46.83556" lon="6.40382">
        <ele>1088.3</ele>
        <time>2024-01-12T16:42:29Z</time>
      </trkpt>
      <trkpt lat="46.83576" lon="6.4039">
        <ele>1088.2</ele>
        <time>2024-01-12T16:42:35Z</time>
      </trkpt>
      <trkpt lat="46.83594" lon="6.40391">
        <ele>1087.9</ele>
        <time>2024-01-12T16:42:40Z</time>
      </trkpt>
      <trkpt lat="46.83613" lon="6.40391">
        <ele>1087.5</ele>
        <time>2024-01-12T16:42:45Z</time>
      </trkpt>
      <trkpt lat="46.83632" lon="6.40396">
        <ele>1086.9</ele>
        <time>2024-01-12T16:42:50Z</time>
      </trkpt>
      <trkpt lat="46.8365" lon="6.40402">
        <ele>1086.6</ele>
        <time>2024-01-12T16:42:55Z</time>
      </trkpt>
      <trkpt lat="46.83669" lon="6.40413">
        <ele>1086.6</ele>
        <time>2024-01-12T16:43:00Z</time>
      </trkpt>
      <trkpt lat="46.83683" lon="6.40429">
        <ele>1086.9</ele>
        <time>2024-01-12T16:43:05Z</time>
      </trkpt>
      <trkpt lat="46.83692" lon="6.40459">
        <ele>1087.5</ele>
        <time>2024-01-12T16:43:11Z</time>
      </trkpt>
      <trkpt lat="46.83699" lon="6.40486">
        <ele>1088.6</ele>
        <time>2024-01-12T16:43:17Z</time>
      </trkpt>
      <trkpt lat="46.83705" lon="6.40512">
        <ele>1089.8</ele>
        <time>2024-01-12T16:43:23Z</time>
      </trkpt>
      <trkpt lat="46.83713" lon="6.40536">
        <ele>1091</ele>
        <time>2024-01-12T16:43:29Z</time>
      </trkpt>
      <trkpt lat="46.8372" lon="6.4056">
        <ele>1092.2</ele>
        <time>2024-01-12T16:43:35Z</time>
      </trkpt>
      <trkpt lat="46.83731" lon="6.40582">
        <ele>1093.1</ele>
        <time>2024-01-12T16:43:41Z</time>
      </trkpt>
      <trkpt lat="46.83743" lon="6.40602">
        <ele>1094.1</ele>
        <time>2024-01-12T16:43:48Z</time>
      </trkpt>
      <trkpt lat="46.83756" lon="6.40621">
        <ele>1094.8</ele>
        <time>2024-01-12T16:43:55Z</time>
      </trkpt>
      <trkpt lat="46.8377" lon="6.40638">
        <ele>1095.3</ele>
        <time>2024-01-12T16:44:01Z</time>
      </trkpt>
      <trkpt lat="46.83786" lon="6.40655">
        <ele>1095.5</ele>
        <time>2024-01-12T16:44:07Z</time>
      </trkpt>
      <trkpt lat="46.83803" lon="6.40671">
        <ele>1095.6</ele>
        <time>2024-01-12T16:44:13Z</time>
      </trkpt>
      <trkpt lat="46.8382" lon="6.40689">
        <ele>1095.9</ele>
        <time>2024-01-12T16:44:19Z</time>
      </trkpt>
      <trkpt lat="46.8382" lon="6.40713">
        <ele>1096.4</ele>
        <time>2024-01-12T16:44:25Z</time>
      </trkpt>
      <trkpt lat="46.83808" lon="6.40737">
        <ele>1097.3</ele>
        <time>2024-01-12T16:44:31Z</time>
      </trkpt>
      <trkpt lat="46.83797" lon="6.4076">
        <ele>1098.1</ele>
        <time>2024-01-12T16:44:37Z</time>
      </trkpt>
      <trkpt lat="46.83792" lon="6.40789">
        <ele>1099.1</ele>
        <time>2024-01-12T16:44:44Z</time>
      </trkpt>
      <trkpt lat="46.83791" lon="6.40818">
        <ele>1100.3</ele>
        <time>2024-01-12T16:44:51Z</time>
      </trkpt>
      <trkpt lat="46.83788" lon="6.40848">
        <ele>1101.5</ele>
        <time>2024-01-12T16:44:59Z</time>
      </trkpt>
      <trkpt lat="46.8379" lon="6.40876">
        <ele>1102.3</ele>
        <time>2024-01-12T16:45:06Z</time>
      </trkpt>
      <trkpt lat="46.83792" lon="6.40904">
        <ele>1102.9</ele>
        <time>2024-01-12T16:45:13Z</time>
      </trkpt>
      <trkpt lat="46.83792" lon="6.40932">
        <ele>1103.6</ele>
        <time>2024-01-12T16:45:20Z</time>
      </trkpt>
      <trkpt lat="46.83795" lon="6.40961">
        <ele>1104.4</ele>
        <time>2024-01-12T16:45:27Z</time>
      </trkpt>
      <trkpt lat="46.83797" lon="6.40988">
        <ele>1105.3</ele>
        <time>2024-01-12T16:45:34Z</time>
      </trkpt>
      <trkpt lat="46.838" lon="6.41016">
        <ele>1106.3</ele>
        <time>2024-01-12T16:45:41Z</time>
      </trkpt>
      <trkpt lat="46.83802" lon="6.41045">
        <ele>1107.3</ele>
        <time>2024-01-12T16:45:48Z</time>
      </trkpt>
      <trkpt lat="46.83804" lon="6.41072">
        <ele>1108.1</ele>
        <time>2024-01-12T16:45:55Z</time>
      </trkpt>
      <trkpt lat="46.83804" lon="6.41099">
        <ele>1108.6</ele>
        <time>2024-01-12T16:46:03Z</time>
      </trkpt>
      <trkpt lat="46.8381" lon="6.41125">
        <ele>1109</ele>
        <time>2024-01-12T16:46:10Z</time>
      </trkpt>
      <trkpt lat="46.83814" lon="6.41154">
        <ele>1109.4</ele>
        <time>2024-01-12T16:46:16Z</time>
      </trkpt>
      <trkpt lat="46.83816" lon="6.41185">
        <ele>1109.6</ele>
        <time>2024-01-12T16:46:22Z</time>
      </trkpt>
      <trkpt lat="46.83816" lon="6.41215">
        <ele>1109.8</ele>
        <time>2024-01-12T16:46:28Z</time>
      </trkpt>
      <trkpt lat="46.83813" lon="6.41245">
        <ele>1109.8</ele>
        <time>2024-01-12T16:46:34Z</time>
      </trkpt>
      <trkpt lat="46.83807" lon="6.41272">
        <ele>1109.9</ele>
        <time>2024-01-12T16:46:40Z</time>
      </trkpt>
      <trkpt lat="46.83796" lon="6.41298">
        <ele>1110.3</ele>
        <time>2024-01-12T16:46:47Z</time>
      </trkpt>
      <trkpt lat="46.83797" lon="6.41323">
        <ele>1110.7</ele>
        <time>2024-01-12T16:46:54Z</time>
      </trkpt>
      <trkpt lat="46.83794" lon="6.4135">
        <ele>1111.1</ele>
        <time>2024-01-12T16:47:01Z</time>
      </trkpt>
      <trkpt lat="46.83791" lon="6.41377">
        <ele>1111.7</ele>
        <time>2024-01-12T16:47:08Z</time>
      </trkpt>
      <trkpt lat="46.83786" lon="6.41406">
        <ele>1112.3</ele>
        <time>2024-01-12T16:47:15Z</time>
      </trkpt>
      <trkpt lat="46.83776" lon="6.41431">
        <ele>1112.7</ele>
        <time>2024-01-12T16:47:22Z</time>
      </trkpt>
      <trkpt lat="46.83766" lon="6.41455">
        <ele>1112.9</ele>
        <time>2024-01-12T16:47:29Z</time>
      </trkpt>
      <trkpt lat="46.83756" lon="6.41478">
        <ele>1112.8</ele>
        <time>2024-01-12T16:47:35Z</time>
      </trkpt>
      <trkpt lat="46.83744" lon="6.41503">
        <ele>1112.7</ele>
        <time>2024-01-12T16:47:42Z</time>
      </trkpt>
      <trkpt lat="46.83733" lon="6.41524">
        <ele>1113.1</ele>
        <time>2024-01-12T16:47:50Z</time>
      </trkpt>
      <trkpt lat="46.83721" lon="6.41547">
        <ele>1113.7</ele>
        <time>2024-01-12T16:47:59Z</time>
      </trkpt>
      <trkpt lat="46.83712" lon="6.41571">
        <ele>1114.2</ele>
        <time>2024-01-12T16:48:08Z</time>
      </trkpt>
      <trkpt lat="46.83704" lon="6.41595">
        <ele>1114.7</ele>
        <time>2024-01-12T16:48:16Z</time>
      </trkpt>
      <trkpt lat="46.83697" lon="6.41623">
        <ele>1115.6</ele>
        <time>2024-01-12T16:48:25Z</time>
      </trkpt>
      <trkpt lat="46.83694" lon="6.41651">
        <ele>1116.7</ele>
        <time>2024-01-12T16:48:34Z</time>
      </trkpt>
      <trkpt lat="46.83696" lon="6.41678">
        <ele>1117.7</ele>
        <time>2024-01-12T16:48:43Z</time>
      </trkpt>
      <trkpt lat="46.83703" lon="6.41706">
        <ele>1118.6</ele>
        <time>2024-01-12T16:48:51Z</time>
      </trkpt>
      <trkpt lat="46.83707" lon="6.41732">
        <ele>1120</ele>
        <time>2024-01-12T16:48:59Z</time>
      </trkpt>
      <trkpt lat="46.83708" lon="6.41759">
        <ele>1122.2</ele>
        <time>2024-01-12T16:49:09Z</time>
      </trkpt>
      <trkpt lat="46.83709" lon="6.41786">
        <ele>1124.8</ele>
        <time>2024-01-12T16:49:20Z</time>
      </trkpt>
      <trkpt lat="46.83706" lon="6.41814">
        <ele>1127.3</ele>
        <time>2024-01-12T16:49:29Z</time>
      </trkpt>
      <trkpt lat="46.83702" lon="6.41816">
        <ele>1127.8</ele>
        <time>2024-01-12T16:49:30Z</time>
      </trkpt>
      <trkpt lat="46.83693" lon="6.41839">
        <ele>1129.4</ele>
        <time>2024-01-12T16:49:41Z</time>
      </trkpt>
      <trkpt lat="46.83679" lon="6.41856">
        <ele>1130.9</ele>
        <time>2024-01-12T16:49:51Z</time>
      </trkpt>
      <trkpt lat="46.83665" lon="6.41874">
        <ele>1132.6</ele>
        <time>2024-01-12T16:50:00Z</time>
      </trkpt>
      <trkpt lat="46.83653" lon="6.41896">
        <ele>1134.5</ele>
        <time>2024-01-12T16:50:10Z</time>
      </trkpt>
      <trkpt lat="46.83648" lon="6.41924">
        <ele>1136</ele>
        <time>2024-01-12T16:50:20Z</time>
      </trkpt>
      <trkpt lat="46.83637" lon="6.41946">
        <ele>1136.4</ele>
        <time>2024-01-12T16:50:27Z</time>
      </trkpt>
      <trkpt lat="46.8362" lon="6.4196">
        <ele>1135.8</ele>
        <time>2024-01-12T16:50:33Z</time>
      </trkpt>
      <trkpt lat="46.83602" lon="6.41966">
        <ele>1135.1</ele>
        <time>2024-01-12T16:50:39Z</time>
      </trkpt>
      <trkpt lat="46.83582" lon="6.41968">
        <ele>1134.1</ele>
        <time>2024-01-12T16:50:46Z</time>
      </trkpt>
      <trkpt lat="46.83565" lon="6.41973">
        <ele>1133.3</ele>
        <time>2024-01-12T16:50:52Z</time>
      </trkpt>
      <trkpt lat="46.83556" lon="6.41998">
        <ele>1133</ele>
        <time>2024-01-12T16:50:59Z</time>
      </trkpt>
      <trkpt lat="46.83558" lon="6.42026">
        <ele>1132.5</ele>
        <time>2024-01-12T16:51:05Z</time>
      </trkpt>
      <trkpt lat="46.8356" lon="6.42056">
        <ele>1131.7</ele>
        <time>2024-01-12T16:51:11Z</time>
      </trkpt>
      <trkpt lat="46.83558" lon="6.42083">
        <ele>1130.8</ele>
        <time>2024-01-12T16:51:16Z</time>
      </trkpt>
      <trkpt lat="46.83552" lon="6.42113">
        <ele>1129.6</ele>
        <time>2024-01-12T16:51:22Z</time>
      </trkpt>
      <trkpt lat="46.83542" lon="6.42139">
        <ele>1128.8</ele>
        <time>2024-01-12T16:51:28Z</time>
      </trkpt>
      <trkpt lat="46.83526" lon="6.4215">
        <ele>1128</ele>
        <time>2024-01-12T16:51:33Z</time>
      </trkpt>
      <trkpt lat="46.83505" lon="6.42155">
        <ele>1127.2</ele>
        <time>2024-01-12T16:51:38Z</time>
      </trkpt>
      <trkpt lat="46.83487" lon="6.4216">
        <ele>1126.6</ele>
        <time>2024-01-12T16:51:43Z</time>
      </trkpt>
      <trkpt lat="46.83482" lon="6.42165">
        <ele>1126.5</ele>
        <time>2024-01-12T16:51:44Z</time>
      </trkpt>
      <trkpt lat="46.8348" lon="6.42193">
        <ele>1127</ele>
        <time>2024-01-12T16:51:52Z</time>
      </trkpt>
      <trkpt lat="46.83482" lon="6.4222">
        <ele>1127.6</ele>
        <time>2024-01-12T16:51:58Z</time>
      </trkpt>
      <trkpt lat="46.83483" lon="6.42248">
        <ele>1128.3</ele>
        <time>2024-01-12T16:52:04Z</time>
      </trkpt>
      <trkpt lat="46.83484" lon="6.42276">
        <ele>1128.8</ele>
        <time>2024-01-12T16:52:10Z</time>
      </trkpt>
      <trkpt lat="46.83484" lon="6.42303">
        <ele>1129.9</ele>
        <time>2024-01-12T16:52:16Z</time>
      </trkpt>
      <trkpt lat="46.83489" lon="6.42328">
        <ele>1131</ele>
        <time>2024-01-12T16:52:22Z</time>
      </trkpt>
      <trkpt lat="46.83493" lon="6.42356">
        <ele>1132.2</ele>
        <time>2024-01-12T16:52:29Z</time>
      </trkpt>
      <trkpt lat="46.83499" lon="6.42383">
        <ele>1133</ele>
        <time>2024-01-12T16:52:36Z</time>
      </trkpt>
      <trkpt lat="46.83507" lon="6.42411">
        <ele>1133.7</ele>
        <time>2024-01-12T16:52:43Z</time>
      </trkpt>
      <trkpt lat="46.83512" lon="6.42438">
        <ele>1134.3</ele>
        <time>2024-01-12T16:52:49Z</time>
      </trkpt>
      <trkpt lat="46.83517" lon="6.42463">
        <ele>1134.9</ele>
        <time>2024-01-12T16:52:55Z</time>
      </trkpt>
      <trkpt lat="46.8352" lon="6.42489">
        <ele>1135.7</ele>
        <time>2024-01-12T16:53:01Z</time>
      </trkpt>
      <trkpt lat="46.83525" lon="6.42518">
        <ele>1136.7</ele>
        <time>2024-01-12T16:53:08Z</time>
      </trkpt>
      <trkpt lat="46.83529" lon="6.42544">
        <ele>1137.5</ele>
        <time>2024-01-12T16:53:14Z</time>
      </trkpt>
      <trkpt lat="46.83532" lon="6.42571">
        <ele>1138.1</ele>
        <time>2024-01-12T16:53:20Z</time>
      </trkpt>
      <trkpt lat="46.83533" lon="6.42598">
        <ele>1138.7</ele>
        <time>2024-01-12T16:53:26Z</time>
      </trkpt>
      <trkpt lat="46.83533" lon="6.42628">
        <ele>1139.2</ele>
        <time>2024-01-12T16:53:33Z</time>
      </trkpt>
      <trkpt lat="46.83533" lon="6.42654">
        <ele>1139.6</ele>
        <time>2024-01-12T16:53:39Z</time>
      </trkpt>
      <trkpt lat="46.83533" lon="6.42682">
        <ele>1139.9</ele>
        <time>2024-01-12T16:53:45Z</time>
      </trkpt>
      <trkpt lat="46.83534" lon="6.42708">
        <ele>1140.1</ele>
        <time>2024-01-12T16:53:51Z</time>
      </trkpt>
      <trkpt lat="46.83536" lon="6.42735">
        <ele>1140.3</ele>
        <time>2024-01-12T16:53:57Z</time>
      </trkpt>
      <trkpt lat="46.83536" lon="6.42764">
        <ele>1140.5</ele>
        <time>2024-01-12T16:54:03Z</time>
      </trkpt>
      <trkpt lat="46.83537" lon="6.42793">
        <ele>1140.7</ele>
        <time>2024-01-12T16:54:09Z</time>
      </trkpt>
      <trkpt lat="46.83537" lon="6.4282">
        <ele>1140.7</ele>
        <time>2024-01-12T16:54:15Z</time>
      </trkpt>
      <trkpt lat="46.83539" lon="6.4285">
        <ele>1140.7</ele>
        <time>2024-01-12T16:54:22Z</time>
      </trkpt>
      <trkpt lat="46.83542" lon="6.42877">
        <ele>1140.7</ele>
        <time>2024-01-12T16:54:28Z</time>
      </trkpt>
      <trkpt lat="46.83549" lon="6.42901">
        <ele>1140.8</ele>
        <time>2024-01-12T16:54:34Z</time>
      </trkpt>
      <trkpt lat="46.8356" lon="6.42924">
        <ele>1140.8</ele>
        <time>2024-01-12T16:54:40Z</time>
      </trkpt>
      <trkpt lat="46.83573" lon="6.42946">
        <ele>1141</ele>
        <time>2024-01-12T16:54:46Z</time>
      </trkpt>
      <trkpt lat="46.83588" lon="6.42965">
        <ele>1141.3</ele>
        <time>2024-01-12T16:54:52Z</time>
      </trkpt>
      <trkpt lat="46.83601" lon="6.42984">
        <ele>1141.7</ele>
        <time>2024-01-12T16:54:58Z</time>
      </trkpt>
      <trkpt lat="46.83616" lon="6.43004">
        <ele>1142.3</ele>
        <time>2024-01-12T16:55:04Z</time>
      </trkpt>
      <trkpt lat="46.8363" lon="6.43024">
        <ele>1142.9</ele>
        <time>2024-01-12T16:55:10Z</time>
      </trkpt>
      <trkpt lat="46.83645" lon="6.43043">
        <ele>1143.5</ele>
        <time>2024-01-12T16:55:16Z</time>
      </trkpt>
      <trkpt lat="46.83661" lon="6.43063">
        <ele>1144.1</ele>
        <time>2024-01-12T16:55:22Z</time>
      </trkpt>
      <trkpt lat="46.83675" lon="6.43079">
        <ele>1144.9</ele>
        <time>2024-01-12T16:55:27Z</time>
      </trkpt>
      <trkpt lat="46.8369" lon="6.43095">
        <ele>1146</ele>
        <time>2024-01-12T16:55:32Z</time>
      </trkpt>
      <trkpt lat="46.83706" lon="6.43114">
        <ele>1147.4</ele>
        <time>2024-01-12T16:55:39Z</time>
      </trkpt>
      <trkpt lat="46.83721" lon="6.43134">
        <ele>1148.8</ele>
        <time>2024-01-12T16:55:46Z</time>
      </trkpt>
      <trkpt lat="46.83735" lon="6.43155">
        <ele>1150.1</ele>
        <time>2024-01-12T16:55:53Z</time>
      </trkpt>
      <trkpt lat="46.83748" lon="6.43178">
        <ele>1151.3</ele>
        <time>2024-01-12T16:56:00Z</time>
      </trkpt>
      <trkpt lat="46.83762" lon="6.43201">
        <ele>1152.7</ele>
        <time>2024-01-12T16:56:07Z</time>
      </trkpt>
      <trkpt lat="46.83776" lon="6.43223">
        <ele>1154.2</ele>
        <time>2024-01-12T16:56:14Z</time>
      </trkpt>
      <trkpt lat="46.83789" lon="6.43245">
        <ele>1155.8</ele>
        <time>2024-01-12T16:56:21Z</time>
      </trkpt>
      <trkpt lat="46.83801" lon="6.43266">
        <ele>1157.2</ele>
        <time>2024-01-12T16:56:28Z</time>
      </trkpt>
      <trkpt lat="46.83815" lon="6.43285">
        <ele>1158.3</ele>
        <time>2024-01-12T16:56:35Z</time>
      </trkpt>
      <trkpt lat="46.83829" lon="6.43306">
        <ele>1159.1</ele>
        <time>2024-01-12T16:56:42Z</time>
      </trkpt>
      <trkpt lat="46.83843" lon="6.43328">
        <ele>1159.9</ele>
        <time>2024-01-12T16:56:49Z</time>
      </trkpt>
      <trkpt lat="46.83856" lon="6.43347">
        <ele>1160.9</ele>
        <time>2024-01-12T16:56:56Z</time>
      </trkpt>
      <trkpt lat="46.83874" lon="6.4335">
        <ele>1162.6</ele>
        <time>2024-01-12T16:57:04Z</time>
      </trkpt>
      <trkpt lat="46.83891" lon="6.43337">
        <ele>1163.8</ele>
        <time>2024-01-12T16:57:11Z</time>
      </trkpt>
      <trkpt lat="46.83907" lon="6.43322">
        <ele>1165.1</ele>
        <time>2024-01-12T16:57:17Z</time>
      </trkpt>
      <trkpt lat="46.83922" lon="6.43308">
        <ele>1166.3</ele>
        <time>2024-01-12T16:57:23Z</time>
      </trkpt>
      <trkpt lat="46.83938" lon="6.43295">
        <ele>1167.4</ele>
        <time>2024-01-12T16:57:29Z</time>
      </trkpt>
      <trkpt lat="46.83956" lon="6.43284">
        <ele>1168.4</ele>
        <time>2024-01-12T16:57:35Z</time>
      </trkpt>
      <trkpt lat="46.83975" lon="6.43279">
        <ele>1169</ele>
        <time>2024-01-12T16:57:41Z</time>
      </trkpt>
      <trkpt lat="46.83995" lon="6.43274">
        <ele>1169</ele>
        <time>2024-01-12T16:57:47Z</time>
      </trkpt>
      <trkpt lat="46.84014" lon="6.43271">
        <ele>1168.3</ele>
        <time>2024-01-12T16:57:52Z</time>
      </trkpt>
      <trkpt lat="46.84034" lon="6.43265">
        <ele>1167.8</ele>
        <time>2024-01-12T16:57:58Z</time>
      </trkpt>
      <trkpt lat="46.84054" lon="6.43256">
        <ele>1168.1</ele>
        <time>2024-01-12T16:58:04Z</time>
      </trkpt>
      <trkpt lat="46.84073" lon="6.43246">
        <ele>1168.8</ele>
        <time>2024-01-12T16:58:10Z</time>
      </trkpt>
      <trkpt lat="46.84093" lon="6.43235">
        <ele>1169.5</ele>
        <time>2024-01-12T16:58:16Z</time>
      </trkpt>
      <trkpt lat="46.8411" lon="6.43224">
        <ele>1169.9</ele>
        <time>2024-01-12T16:58:21Z</time>
      </trkpt>
      <trkpt lat="46.84128" lon="6.43212">
        <ele>1169.7</ele>
        <time>2024-01-12T16:58:26Z</time>
      </trkpt>
      <trkpt lat="46.84146" lon="6.43199">
        <ele>1169</ele>
        <time>2024-01-12T16:58:31Z</time>
      </trkpt>
      <trkpt lat="46.84165" lon="6.43183">
        <ele>1167.4</ele>
        <time>2024-01-12T16:58:36Z</time>
      </trkpt>
      <trkpt lat="46.84181" lon="6.43169">
        <ele>1165.7</ele>
        <time>2024-01-12T16:58:40Z</time>
      </trkpt>
      <trkpt lat="46.84197" lon="6.43155">
        <ele>1164.6</ele>
        <time>2024-01-12T16:58:44Z</time>
      </trkpt>
      <trkpt lat="46.84215" lon="6.43138">
        <ele>1163.6</ele>
        <time>2024-01-12T16:58:49Z</time>
      </trkpt>
      <trkpt lat="46.84233" lon="6.43122">
        <ele>1163</ele>
        <time>2024-01-12T16:58:54Z</time>
      </trkpt>
      <trkpt lat="46.84251" lon="6.43108">
        <ele>1162.5</ele>
        <time>2024-01-12T16:58:59Z</time>
      </trkpt>
      <trkpt lat="46.84268" lon="6.43092">
        <ele>1162.3</ele>
        <time>2024-01-12T16:59:04Z</time>
      </trkpt>
      <trkpt lat="46.84286" lon="6.43076">
        <ele>1162.2</ele>
        <time>2024-01-12T16:59:09Z</time>
      </trkpt>
      <trkpt lat="46.84304" lon="6.4306">
        <ele>1162.4</ele>
        <time>2024-01-12T16:59:14Z</time>
      </trkpt>
      <trkpt lat="46.84321" lon="6.43046">
        <ele>1162.8</ele>
        <time>2024-01-12T16:59:19Z</time>
      </trkpt>
      <trkpt lat="46.84337" lon="6.43031">
        <ele>1163.5</ele>
        <time>2024-01-12T16:59:24Z</time>
      </trkpt>
      <trkpt lat="46.84354" lon="6.43016">
        <ele>1164.4</ele>
        <time>2024-01-12T16:59:29Z</time>
      </trkpt>
      <trkpt lat="46.84369" lon="6.43">
        <ele>1165.4</ele>
        <time>2024-01-12T16:59:34Z</time>
      </trkpt>
      <trkpt lat="46.8438" lon="6.4298">
        <ele>1166.6</ele>
        <time>2024-01-12T16:59:39Z</time>
      </trkpt>
      <trkpt lat="46.84391" lon="6.42954">
        <ele>1168.1</ele>
        <time>2024-01-12T16:59:45Z</time>
      </trkpt>
      <trkpt lat="46.84401" lon="6.42929">
        <ele>1169.4</ele>
        <time>2024-01-12T16:59:51Z</time>
      </trkpt>
      <trkpt lat="46.8441" lon="6.42905">
        <ele>1170.6</ele>
        <time>2024-01-12T16:59:57Z</time>
      </trkpt>
      <trkpt lat="46.8442" lon="6.42882">
        <ele>1171.7</ele>
        <time>2024-01-12T17:00:03Z</time>
      </trkpt>
      <trkpt lat="46.8443" lon="6.42869">
        <ele>1172.6</ele>
        <time>2024-01-12T17:00:08Z</time>
      </trkpt>
      <trkpt lat="46.84445" lon="6.42886">
        <ele>1175</ele>
        <time>2024-01-12T17:00:16Z</time>
      </trkpt>
      <trkpt lat="46.84458" lon="6.42906">
        <ele>1176.7</ele>
        <time>2024-01-12T17:00:23Z</time>
      </trkpt>
      <trkpt lat="46.84471" lon="6.4293">
        <ele>1178.7</ele>
        <time>2024-01-12T17:00:31Z</time>
      </trkpt>
      <trkpt lat="46.84483" lon="6.42954">
        <ele>1180.6</ele>
        <time>2024-01-12T17:00:39Z</time>
      </trkpt>
      <trkpt lat="46.84496" lon="6.42975">
        <ele>1182.3</ele>
        <time>2024-01-12T17:00:47Z</time>
      </trkpt>
      <trkpt lat="46.84507" lon="6.42999">
        <ele>1184.2</ele>
        <time>2024-01-12T17:00:55Z</time>
      </trkpt>
      <trkpt lat="46.84517" lon="6.43025">
        <ele>1186</ele>
        <time>2024-01-12T17:01:03Z</time>
      </trkpt>
      <trkpt lat="46.84526" lon="6.4305">
        <ele>1187.4</ele>
        <time>2024-01-12T17:01:10Z</time>
      </trkpt>
      <trkpt lat="46.84537" lon="6.43073">
        <ele>1188.8</ele>
        <time>2024-01-12T17:01:17Z</time>
      </trkpt>
      <trkpt lat="46.8455" lon="6.43096">
        <ele>1190</ele>
        <time>2024-01-12T17:01:24Z</time>
      </trkpt>
      <trkpt lat="46.84562" lon="6.43116">
        <ele>1190.8</ele>
        <time>2024-01-12T17:01:30Z</time>
      </trkpt>
      <trkpt lat="46.84579" lon="6.43127">
        <ele>1191.3</ele>
        <time>2024-01-12T17:01:37Z</time>
      </trkpt>
      <trkpt lat="46.84598" lon="6.43119">
        <ele>1190.7</ele>
        <time>2024-01-12T17:01:44Z</time>
      </trkpt>
      <trkpt lat="46.84616" lon="6.43111">
        <ele>1189.9</ele>
        <time>2024-01-12T17:01:50Z</time>
      </trkpt>
      <trkpt lat="46.84634" lon="6.43104">
        <ele>1188.8</ele>
        <time>2024-01-12T17:01:56Z</time>
      </trkpt>
      <trkpt lat="46.84653" lon="6.43092">
        <ele>1187.2</ele>
        <time>2024-01-12T17:02:03Z</time>
      </trkpt>
      <trkpt lat="46.84672" lon="6.43076">
        <ele>1185.3</ele>
        <time>2024-01-12T17:02:09Z</time>
      </trkpt>
      <trkpt lat="46.84686" lon="6.43057">
        <ele>1183.5</ele>
        <time>2024-01-12T17:02:14Z</time>
      </trkpt>
      <trkpt lat="46.847" lon="6.43037">
        <ele>1181.7</ele>
        <time>2024-01-12T17:02:19Z</time>
      </trkpt>
      <trkpt lat="46.84714" lon="6.4302">
        <ele>1180.4</ele>
        <time>2024-01-12T17:02:23Z</time>
      </trkpt>
      <trkpt lat="46.84729" lon="6.43">
        <ele>1179.6</ele>
        <time>2024-01-12T17:02:28Z</time>
      </trkpt>
      <trkpt lat="46.84742" lon="6.42982">
        <ele>1179.1</ele>
        <time>2024-01-12T17:02:33Z</time>
      </trkpt>
      <trkpt lat="46.84758" lon="6.42962">
        <ele>1178.3</ele>
        <time>2024-01-12T17:02:39Z</time>
      </trkpt>
      <trkpt lat="46.84773" lon="6.42945">
        <ele>1177.5</ele>
        <time>2024-01-12T17:02:44Z</time>
      </trkpt>
      <trkpt lat="46.84786" lon="6.42925">
        <ele>1176.8</ele>
        <time>2024-01-12T17:02:49Z</time>
      </trkpt>
      <trkpt lat="46.848" lon="6.42901">
        <ele>1176.4</ele>
        <time>2024-01-12T17:02:55Z</time>
      </trkpt>
      <trkpt lat="46.84813" lon="6.42882">
        <ele>1176.2</ele>
        <time>2024-01-12T17:03:00Z</time>
      </trkpt>
      <trkpt lat="46.84825" lon="6.42862">
        <ele>1176.2</ele>
        <time>2024-01-12T17:03:05Z</time>
      </trkpt>
      <trkpt lat="46.8484" lon="6.42839">
        <ele>1176.3</ele>
        <time>2024-01-12T17:03:11Z</time>
      </trkpt>
      <trkpt lat="46.84851" lon="6.42817">
        <ele>1176.3</ele>
        <time>2024-01-12T17:03:16Z</time>
      </trkpt>
      <trkpt lat="46.84862" lon="6.42797">
        <ele>1176.2</ele>
        <time>2024-01-12T17:03:21Z</time>
      </trkpt>
      <trkpt lat="46.84875" lon="6.42779">
        <ele>1175.9</ele>
        <time>2024-01-12T17:03:26Z</time>
      </trkpt>
      <trkpt lat="46.84887" lon="6.42758">
        <ele>1175.6</ele>
        <time>2024-01-12T17:03:31Z</time>
      </trkpt>
      <trkpt lat="46.84902" lon="6.42734">
        <ele>1175.4</ele>
        <time>2024-01-12T17:03:37Z</time>
      </trkpt>
      <trkpt lat="46.84917" lon="6.42713">
        <ele>1175.3</ele>
        <time>2024-01-12T17:03:43Z</time>
      </trkpt>
      <trkpt lat="46.84934" lon="6.42701">
        <ele>1175.3</ele>
        <time>2024-01-12T17:03:49Z</time>
      </trkpt>
      <trkpt lat="46.84953" lon="6.42694">
        <ele>1175.7</ele>
        <time>2024-01-12T17:03:55Z</time>
      </trkpt>
      <trkpt lat="46.84971" lon="6.42685">
        <ele>1176.2</ele>
        <time>2024-01-12T17:04:02Z</time>
      </trkpt>
      <trkpt lat="46.84989" lon="6.42673">
        <ele>1176.7</ele>
        <time>2024-01-12T17:04:08Z</time>
      </trkpt>
      <trkpt lat="46.85005" lon="6.42661">
        <ele>1177.1</ele>
        <time>2024-01-12T17:04:14Z</time>
      </trkpt>
      <trkpt lat="46.85022" lon="6.42649">
        <ele>1177.2</ele>
        <time>2024-01-12T17:04:20Z</time>
      </trkpt>
      <trkpt lat="46.85039" lon="6.42635">
        <ele>1177.1</ele>
        <time>2024-01-12T17:04:26Z</time>
      </trkpt>
      <trkpt lat="46.85056" lon="6.42619">
        <ele>1177</ele>
        <time>2024-01-12T17:04:32Z</time>
      </trkpt>
      <trkpt lat="46.85073" lon="6.42601">
        <ele>1177.2</ele>
        <time>2024-01-12T17:04:38Z</time>
      </trkpt>
      <trkpt lat="46.85089" lon="6.42585">
        <ele>1177.5</ele>
        <time>2024-01-12T17:04:45Z</time>
      </trkpt>
      <trkpt lat="46.85106" lon="6.42568">
        <ele>1177.2</ele>
        <time>2024-01-12T17:04:52Z</time>
      </trkpt>
      <trkpt lat="46.85122" lon="6.42548">
        <ele>1176.3</ele>
        <time>2024-01-12T17:04:58Z</time>
      </trkpt>
      <trkpt lat="46.85137" lon="6.42531">
        <ele>1175.8</ele>
        <time>2024-01-12T17:05:04Z</time>
      </trkpt>
      <trkpt lat="46.8514" lon="6.42519">
        <ele>1175.8</ele>
        <time>2024-01-12T17:05:08Z</time>
      </trkpt>
      <trkpt lat="46.85133" lon="6.42493">
        <ele>1175.6</ele>
        <time>2024-01-12T17:05:15Z</time>
      </trkpt>
      <trkpt lat="46.85128" lon="6.42478">
        <ele>1175.3</ele>
        <time>2024-01-12T17:05:19Z</time>
      </trkpt>
      <trkpt lat="46.85128" lon="6.42477">
        <ele>1175.3</ele>
        <time>2024-01-12T17:05:42Z</time>
      </trkpt>
      <trkpt lat="46.85134" lon="6.42506">
        <ele>1175.8</ele>
        <time>2024-01-12T17:05:49Z</time>
      </trkpt>
      <trkpt lat="46.85142" lon="6.42534">
        <ele>1175.8</ele>
        <time>2024-01-12T17:05:55Z</time>
      </trkpt>
      <trkpt lat="46.85148" lon="6.42561">
        <ele>1175.1</ele>
        <time>2024-01-12T17:06:00Z</time>
      </trkpt>
      <trkpt lat="46.85155" lon="6.42586">
        <ele>1174.3</ele>
        <time>2024-01-12T17:06:05Z</time>
      </trkpt>
      <trkpt lat="46.85164" lon="6.4261">
        <ele>1173.5</ele>
        <time>2024-01-12T17:06:10Z</time>
      </trkpt>
      <trkpt lat="46.85175" lon="6.42634">
        <ele>1172.5</ele>
        <time>2024-01-12T17:06:15Z</time>
      </trkpt>
      <trkpt lat="46.85184" lon="6.42659">
        <ele>1171.3</ele>
        <time>2024-01-12T17:06:20Z</time>
      </trkpt>
      <trkpt lat="46.85191" lon="6.42688">
        <ele>1170.3</ele>
        <time>2024-01-12T17:06:26Z</time>
      </trkpt>
      <trkpt lat="46.85196" lon="6.42717">
        <ele>1169.9</ele>
        <time>2024-01-12T17:06:32Z</time>
      </trkpt>
      <trkpt lat="46.85203" lon="6.42743">
        <ele>1171.5</ele>
        <time>2024-01-12T17:06:38Z</time>
      </trkpt>
      <trkpt lat="46.85209" lon="6.4277">
        <ele>1174.4</ele>
        <time>2024-01-12T17:06:46Z</time>
      </trkpt>
      <trkpt lat="46.85208" lon="6.42779">
        <ele>1174.5</ele>
        <time>2024-01-12T17:06:51Z</time>
      </trkpt>
      <trkpt lat="46.85211" lon="6.42778">
        <ele>1174.7</ele>
        <time>2024-01-12T17:06:53Z</time>
      </trkpt>
      <trkpt lat="46.85228" lon="6.42795">
        <ele>1175.3</ele>
        <time>2024-01-12T17:07:00Z</time>
      </trkpt>
      <trkpt lat="46.85235" lon="6.42805">
        <ele>1175.7</ele>
        <time>2024-01-12T17:07:07Z</time>
      </trkpt>
      <trkpt lat="46.85221" lon="6.42787">
        <ele>1175.1</ele>
        <time>2024-01-12T17:07:13Z</time>
      </trkpt>
      <trkpt lat="46.85208" lon="6.42766">
        <ele>1174.4</ele>
        <time>2024-01-12T17:07:18Z</time>
      </trkpt>
      <trkpt lat="46.85197" lon="6.42745">
        <ele>1171.5</ele>
        <time>2024-01-12T17:07:22Z</time>
      </trkpt>
      <trkpt lat="46.85188" lon="6.42721">
        <ele>1169.9</ele>
        <time>2024-01-12T17:07:26Z</time>
      </trkpt>
      <trkpt lat="46.85181" lon="6.42694">
        <ele>1170.3</ele>
        <time>2024-01-12T17:07:31Z</time>
      </trkpt>
      <trkpt lat="46.85177" lon="6.42668">
        <ele>1171.1</ele>
        <time>2024-01-12T17:07:37Z</time>
      </trkpt>
      <trkpt lat="46.85172" lon="6.42643">
        <ele>1172.2</ele>
        <time>2024-01-12T17:07:43Z</time>
      </trkpt>
      <trkpt lat="46.85163" lon="6.42616">
        <ele>1173.4</ele>
        <time>2024-01-12T17:07:50Z</time>
      </trkpt>
      <trkpt lat="46.85153" lon="6.42589">
        <ele>1174.3</ele>
        <time>2024-01-12T17:07:57Z</time>
      </trkpt>
      <trkpt lat="46.85145" lon="6.42561">
        <ele>1175.1</ele>
        <time>2024-01-12T17:08:04Z</time>
      </trkpt>
      <trkpt lat="46.85137" lon="6.42534">
        <ele>1175.8</ele>
        <time>2024-01-12T17:08:11Z</time>
      </trkpt>
      <trkpt lat="46.85132" lon="6.42508">
        <ele>1175.8</ele>
        <time>2024-01-12T17:08:17Z</time>
      </trkpt>
      <trkpt lat="46.85126" lon="6.42483">
        <ele>1175.4</ele>
        <time>2024-01-12T17:08:23Z</time>
      </trkpt>
      <trkpt lat="46.85119" lon="6.42457">
        <ele>1174.6</ele>
        <time>2024-01-12T17:08:29Z</time>
      </trkpt>
      <trkpt lat="46.85111" lon="6.42432">
        <ele>1173.7</ele>
        <time>2024-01-12T17:08:35Z</time>
      </trkpt>
      <trkpt lat="46.85099" lon="6.42412">
        <ele>1172.7</ele>
        <time>2024-01-12T17:08:41Z</time>
      </trkpt>
      <trkpt lat="46.85086" lon="6.42393">
        <ele>1171.7</ele>
        <time>2024-01-12T17:08:47Z</time>
      </trkpt>
      <trkpt lat="46.8507" lon="6.42375">
        <ele>1170.4</ele>
        <time>2024-01-12T17:08:53Z</time>
      </trkpt>
      <trkpt lat="46.85054" lon="6.42363">
        <ele>1169</ele>
        <time>2024-01-12T17:08:59Z</time>
      </trkpt>
      <trkpt lat="46.85034" lon="6.42355">
        <ele>1167.5</ele>
        <time>2024-01-12T17:09:05Z</time>
      </trkpt>
      <trkpt lat="46.85017" lon="6.42344">
        <ele>1166</ele>
        <time>2024-01-12T17:09:10Z</time>
      </trkpt>
      <trkpt lat="46.85" lon="6.42331">
        <ele>1164.6</ele>
        <time>2024-01-12T17:09:15Z</time>
      </trkpt>
      <trkpt lat="46.84984" lon="6.42316">
        <ele>1163.2</ele>
        <time>2024-01-12T17:09:20Z</time>
      </trkpt>
      <trkpt lat="46.8497" lon="6.42297">
        <ele>1161.7</ele>
        <time>2024-01-12T17:09:25Z</time>
      </trkpt>
      <trkpt lat="46.84958" lon="6.42272">
        <ele>1160.1</ele>
        <time>2024-01-12T17:09:31Z</time>
      </trkpt>
      <trkpt lat="46.84946" lon="6.42246">
        <ele>1158.5</ele>
        <time>2024-01-12T17:09:37Z</time>
      </trkpt>
      <trkpt lat="46.84935" lon="6.42222">
        <ele>1157.1</ele>
        <time>2024-01-12T17:09:43Z</time>
      </trkpt>
      <trkpt lat="46.84925" lon="6.42196">
        <ele>1155.8</ele>
        <time>2024-01-12T17:09:49Z</time>
      </trkpt>
      <trkpt lat="46.84911" lon="6.42178">
        <ele>1154.4</ele>
        <time>2024-01-12T17:09:55Z</time>
      </trkpt>
      <trkpt lat="46.84892" lon="6.42164">
        <ele>1152.7</ele>
        <time>2024-01-12T17:10:01Z</time>
      </trkpt>
      <trkpt lat="46.84877" lon="6.42152">
        <ele>1151.2</ele>
        <time>2024-01-12T17:10:06Z</time>
      </trkpt>
      <trkpt lat="46.84862" lon="6.42135">
        <ele>1149.7</ele>
        <time>2024-01-12T17:10:11Z</time>
      </trkpt>
      <trkpt lat="46.84845" lon="6.42117">
        <ele>1148</ele>
        <time>2024-01-12T17:10:17Z</time>
      </trkpt>
      <trkpt lat="46.84831" lon="6.42101">
        <ele>1146.6</ele>
        <time>2024-01-12T17:10:22Z</time>
      </trkpt>
      <trkpt lat="46.84817" lon="6.42083">
        <ele>1145.2</ele>
        <time>2024-01-12T17:10:27Z</time>
      </trkpt>
      <trkpt lat="46.84802" lon="6.42061">
        <ele>1143.8</ele>
        <time>2024-01-12T17:10:33Z</time>
      </trkpt>
      <trkpt lat="46.84789" lon="6.42038">
        <ele>1142.6</ele>
        <time>2024-01-12T17:10:39Z</time>
      </trkpt>
      <trkpt lat="46.84776" lon="6.42018">
        <ele>1141.6</ele>
        <time>2024-01-12T17:10:45Z</time>
      </trkpt>
      <trkpt lat="46.84762" lon="6.41995">
        <ele>1140.5</ele>
        <time>2024-01-12T17:10:51Z</time>
      </trkpt>
      <trkpt lat="46.84749" lon="6.41977">
        <ele>1139.5</ele>
        <time>2024-01-12T17:10:57Z</time>
      </trkpt>
      <trkpt lat="46.84735" lon="6.41958">
        <ele>1138.3</ele>
        <time>2024-01-12T17:11:03Z</time>
      </trkpt>
      <trkpt lat="46.84721" lon="6.41938">
        <ele>1137.1</ele>
        <time>2024-01-12T17:11:09Z</time>
      </trkpt>
      <trkpt lat="46.84708" lon="6.41918">
        <ele>1135.9</ele>
        <time>2024-01-12T17:11:15Z</time>
      </trkpt>
      <trkpt lat="46.84694" lon="6.41898">
        <ele>1134.7</ele>
        <time>2024-01-12T17:11:21Z</time>
      </trkpt>
      <trkpt lat="46.8468" lon="6.41876">
        <ele>1133.3</ele>
        <time>2024-01-12T17:11:27Z</time>
      </trkpt>
      <trkpt lat="46.84664" lon="6.41856">
        <ele>1132</ele>
        <time>2024-01-12T17:11:33Z</time>
      </trkpt>
      <trkpt lat="46.84648" lon="6.4184">
        <ele>1130.7</ele>
        <time>2024-01-12T17:11:39Z</time>
      </trkpt>
      <trkpt lat="46.84631" lon="6.41828">
        <ele>1129.4</ele>
        <time>2024-01-12T17:11:45Z</time>
      </trkpt>
      <trkpt lat="46.84612" lon="6.41818">
        <ele>1127.9</ele>
        <time>2024-01-12T17:11:51Z</time>
      </trkpt>
      <trkpt lat="46.84594" lon="6.41804">
        <ele>1126.4</ele>
        <time>2024-01-12T17:11:57Z</time>
      </trkpt>
      <trkpt lat="46.8458" lon="6.41786">
        <ele>1125.1</ele>
        <time>2024-01-12T17:12:03Z</time>
      </trkpt>
      <trkpt lat="46.84571" lon="6.41763">
        <ele>1123.9</ele>
        <time>2024-01-12T17:12:09Z</time>
      </trkpt>
      <trkpt lat="46.84562" lon="6.41739">
        <ele>1122.7</ele>
        <time>2024-01-12T17:12:15Z</time>
      </trkpt>
      <trkpt lat="46.84552" lon="6.41714">
        <ele>1121.7</ele>
        <time>2024-01-12T17:12:21Z</time>
      </trkpt>
      <trkpt lat="46.84544" lon="6.4169">
        <ele>1120.9</ele>
        <time>2024-01-12T17:12:27Z</time>
      </trkpt>
      <trkpt lat="46.84535" lon="6.41666">
        <ele>1120.1</ele>
        <time>2024-01-12T17:12:33Z</time>
      </trkpt>
      <trkpt lat="46.84524" lon="6.41643">
        <ele>1119.4</ele>
        <time>2024-01-12T17:12:39Z</time>
      </trkpt>
      <trkpt lat="46.84513" lon="6.41618">
        <ele>1118.8</ele>
        <time>2024-01-12T17:12:46Z</time>
      </trkpt>
      <trkpt lat="46.84499" lon="6.41595">
        <ele>1118.1</ele>
        <time>2024-01-12T17:12:53Z</time>
      </trkpt>
      <trkpt lat="46.84485" lon="6.41572">
        <ele>1117.2</ele>
        <time>2024-01-12T17:13:00Z</time>
      </trkpt>
      <trkpt lat="46.84475" lon="6.41549">
        <ele>1116.4</ele>
        <time>2024-01-12T17:13:06Z</time>
      </trkpt>
      <trkpt lat="46.84471" lon="6.41521">
        <ele>1115.7</ele>
        <time>2024-01-12T17:13:12Z</time>
      </trkpt>
      <trkpt lat="46.84471" lon="6.41495">
        <ele>1115.1</ele>
        <time>2024-01-12T17:13:18Z</time>
      </trkpt>
      <trkpt lat="46.84471" lon="6.41465">
        <ele>1114.5</ele>
        <time>2024-01-12T17:13:25Z</time>
      </trkpt>
      <trkpt lat="46.8447" lon="6.41438">
        <ele>1114</ele>
        <time>2024-01-12T17:13:32Z</time>
      </trkpt>
      <trkpt lat="46.84466" lon="6.4141">
        <ele>1113.4</ele>
        <time>2024-01-12T17:13:39Z</time>
      </trkpt>
      <trkpt lat="46.84456" lon="6.41386">
        <ele>1112.7</ele>
        <time>2024-01-12T17:13:46Z</time>
      </trkpt>
      <trkpt lat="46.8444" lon="6.41366">
        <ele>1111.8</ele>
        <time>2024-01-12T17:13:53Z</time>
      </trkpt>
      <trkpt lat="46.84427" lon="6.41349">
        <ele>1110.8</ele>
        <time>2024-01-12T17:13:59Z</time>
      </trkpt>
      <trkpt lat="46.84414" lon="6.4133">
        <ele>1109.9</ele>
        <time>2024-01-12T17:14:05Z</time>
      </trkpt>
      <trkpt lat="46.84401" lon="6.41311">
        <ele>1109.1</ele>
        <time>2024-01-12T17:14:11Z</time>
      </trkpt>
      <trkpt lat="46.84386" lon="6.41291">
        <ele>1108.3</ele>
        <time>2024-01-12T17:14:18Z</time>
      </trkpt>
      <trkpt lat="46.84373" lon="6.41272">
        <ele>1107.8</ele>
        <time>2024-01-12T17:14:24Z</time>
      </trkpt>
      <trkpt lat="46.84357" lon="6.41252">
        <ele>1107.4</ele>
        <time>2024-01-12T17:14:31Z</time>
      </trkpt>
      <trkpt lat="46.84344" lon="6.41234">
        <ele>1107</ele>
        <time>2024-01-12T17:14:37Z</time>
      </trkpt>
      <trkpt lat="46.84329" lon="6.41215">
        <ele>1106.7</ele>
        <time>2024-01-12T17:14:43Z</time>
      </trkpt>
      <trkpt lat="46.84313" lon="6.41195">
        <ele>1106.3</ele>
        <time>2024-01-12T17:14:49Z</time>
      </trkpt>
      <trkpt lat="46.84298" lon="6.41176">
        <ele>1106.1</ele>
        <time>2024-01-12T17:14:55Z</time>
      </trkpt>
      <trkpt lat="46.84283" lon="6.41158">
        <ele>1106</ele>
        <time>2024-01-12T17:15:01Z</time>
      </trkpt>
      <trkpt lat="46.84266" lon="6.41141">
        <ele>1106</ele>
        <time>2024-01-12T17:15:08Z</time>
      </trkpt>
      <trkpt lat="46.84248" lon="6.41127">
        <ele>1105.8</ele>
        <time>2024-01-12T17:15:15Z</time>
      </trkpt>
      <trkpt lat="46.84232" lon="6.41111">
        <ele>1105.3</ele>
        <time>2024-01-12T17:15:22Z</time>
      </trkpt>
      <trkpt lat="46.84216" lon="6.41095">
        <ele>1104.7</ele>
        <time>2024-01-12T17:15:28Z</time>
      </trkpt>
      <trkpt lat="46.842" lon="6.41076">
        <ele>1104.1</ele>
        <time>2024-01-12T17:15:35Z</time>
      </trkpt>
      <trkpt lat="46.84185" lon="6.41059">
        <ele>1104</ele>
        <time>2024-01-12T17:15:41Z</time>
      </trkpt>
      <trkpt lat="46.84171" lon="6.41042">
        <ele>1103.8</ele>
        <time>2024-01-12T17:15:47Z</time>
      </trkpt>
      <trkpt lat="46.84154" lon="6.41025">
        <ele>1103.6</ele>
        <time>2024-01-12T17:15:54Z</time>
      </trkpt>
      <trkpt lat="46.84137" lon="6.41008">
        <ele>1103</ele>
        <time>2024-01-12T17:16:01Z</time>
      </trkpt>
      <trkpt lat="46.8412" lon="6.40991">
        <ele>1102.4</ele>
        <time>2024-01-12T17:16:08Z</time>
      </trkpt>
      <trkpt lat="46.84105" lon="6.40973">
        <ele>1101.7</ele>
        <time>2024-01-12T17:16:14Z</time>
      </trkpt>
      <trkpt lat="46.8409" lon="6.40953">
        <ele>1101.1</ele>
        <time>2024-01-12T17:16:20Z</time>
      </trkpt>
      <trkpt lat="46.84077" lon="6.40934">
        <ele>1100.5</ele>
        <time>2024-01-12T17:16:25Z</time>
      </trkpt>
      <trkpt lat="46.84064" lon="6.40916">
        <ele>1100</ele>
        <time>2024-01-12T17:16:30Z</time>
      </trkpt>
      <trkpt lat="46.84048" lon="6.40897">
        <ele>1099.6</ele>
        <time>2024-01-12T17:16:36Z</time>
      </trkpt>
      <trkpt lat="46.84034" lon="6.40877">
        <ele>1099.4</ele>
        <time>2024-01-12T17:16:42Z</time>
      </trkpt>
      <trkpt lat="46.84018" lon="6.40858">
        <ele>1099.1</ele>
        <time>2024-01-12T17:16:49Z</time>
      </trkpt>
      <trkpt lat="46.84" lon="6.40844">
        <ele>1099.1</ele>
        <time>2024-01-12T17:16:56Z</time>
      </trkpt>
      <trkpt lat="46.83983" lon="6.40829">
        <ele>1099.1</ele>
        <time>2024-01-12T17:17:03Z</time>
      </trkpt>
      <trkpt lat="46.83966" lon="6.40811">
        <ele>1099.1</ele>
        <time>2024-01-12T17:17:10Z</time>
      </trkpt>
      <trkpt lat="46.83952" lon="6.40795">
        <ele>1099</ele>
        <time>2024-01-12T17:17:16Z</time>
      </trkpt>
      <trkpt lat="46.83937" lon="6.4078">
        <ele>1098.8</ele>
        <time>2024-01-12T17:17:22Z</time>
      </trkpt>
      <trkpt lat="46.8392" lon="6.40763">
        <ele>1098.4</ele>
        <time>2024-01-12T17:17:29Z</time>
      </trkpt>
      <trkpt lat="46.83903" lon="6.40749">
        <ele>1097.9</ele>
        <time>2024-01-12T17:17:36Z</time>
      </trkpt>
      <trkpt lat="46.83885" lon="6.40735">
        <ele>1097.4</ele>
        <time>2024-01-12T17:17:43Z</time>
      </trkpt>
      <trkpt lat="46.83869" lon="6.40719">
        <ele>1097</ele>
        <time>2024-01-12T17:17:49Z</time>
      </trkpt>
      <trkpt lat="46.8385" lon="6.40707">
        <ele>1096.6</ele>
        <time>2024-01-12T17:17:56Z</time>
      </trkpt>
      <trkpt lat="46.83833" lon="6.40698">
        <ele>1096.2</ele>
        <time>2024-01-12T17:18:03Z</time>
      </trkpt>
      <trkpt lat="46.83815" lon="6.40687">
        <ele>1095.8</ele>
        <time>2024-01-12T17:18:10Z</time>
      </trkpt>
      <trkpt lat="46.83798" lon="6.4067">
        <ele>1095.6</ele>
        <time>2024-01-12T17:18:16Z</time>
      </trkpt>
      <trkpt lat="46.83779" lon="6.40651">
        <ele>1095.4</ele>
        <time>2024-01-12T17:18:21Z</time>
      </trkpt>
      <trkpt lat="46.83764" lon="6.40635">
        <ele>1095.2</ele>
        <time>2024-01-12T17:18:25Z</time>
      </trkpt>
      <trkpt lat="46.83746" lon="6.40615">
        <ele>1094.5</ele>
        <time>2024-01-12T17:18:30Z</time>
      </trkpt>
      <trkpt lat="46.83732" lon="6.40597">
        <ele>1093.6</ele>
        <time>2024-01-12T17:18:34Z</time>
      </trkpt>
      <trkpt lat="46.83719" lon="6.40576">
        <ele>1092.6</ele>
        <time>2024-01-12T17:18:38Z</time>
      </trkpt>
      <trkpt lat="46.83714" lon="6.40565">
        <ele>1092.1</ele>
        <time>2024-01-12T17:18:40Z</time>
      </trkpt>
      <trkpt lat="46.83705" lon="6.4054">
        <ele>1090.9</ele>
        <time>2024-01-12T17:18:44Z</time>
      </trkpt>
      <trkpt lat="46.83696" lon="6.40513">
        <ele>1089.6</ele>
        <time>2024-01-12T17:18:48Z</time>
      </trkpt>
      <trkpt lat="46.83688" lon="6.40485">
        <ele>1088.3</ele>
        <time>2024-01-12T17:18:52Z</time>
      </trkpt>
      <trkpt lat="46.83681" lon="6.40457">
        <ele>1087.4</ele>
        <time>2024-01-12T17:18:56Z</time>
      </trkpt>
      <trkpt lat="46.83675" lon="6.40431">
        <ele>1086.9</ele>
        <time>2024-01-12T17:19:00Z</time>
      </trkpt>
      <trkpt lat="46.83669" lon="6.40405">
        <ele>1086.5</ele>
        <time>2024-01-12T17:19:04Z</time>
      </trkpt>
      <trkpt lat="46.83664" lon="6.4038">
        <ele>1086.1</ele>
        <time>2024-01-12T17:19:08Z</time>
      </trkpt>
      <trkpt lat="46.83658" lon="6.40353">
        <ele>1085.8</ele>
        <time>2024-01-12T17:19:12Z</time>
      </trkpt>
      <trkpt lat="46.83654" lon="6.40326">
        <ele>1085.4</ele>
        <time>2024-01-12T17:19:16Z</time>
      </trkpt>
      <trkpt lat="46.83648" lon="6.40298">
        <ele>1085</ele>
        <time>2024-01-12T17:19:20Z</time>
      </trkpt>
      <trkpt lat="46.83644" lon="6.40271">
        <ele>1084.6</ele>
        <time>2024-01-12T17:19:24Z</time>
      </trkpt>
      <trkpt lat="46.8364" lon="6.40243">
        <ele>1084.3</ele>
        <time>2024-01-12T17:19:28Z</time>
      </trkpt>
      <trkpt lat="46.83637" lon="6.40217">
        <ele>1084</ele>
        <time>2024-01-12T17:19:32Z</time>
      </trkpt>
      <trkpt lat="46.83633" lon="6.40191">
        <ele>1083.8</ele>
        <time>2024-01-12T17:19:36Z</time>
      </trkpt>
      <trkpt lat="46.83632" lon="6.4016">
        <ele>1083.6</ele>
        <time>2024-01-12T17:19:41Z</time>
      </trkpt>
      <trkpt lat="46.83629" lon="6.40144">
        <ele>1083.5</ele>
        <time>2024-01-12T17:19:44Z</time>
      </trkpt>
      <trkpt lat="46.83627" lon="6.40138">
        <ele>1083.5</ele>
        <time>2024-01-12T17:19:46Z</time>
      </trkpt>
      <trkpt lat="46.83606" lon="6.40137">
        <ele>1083.5</ele>
        <time>2024-01-12T17:19:53Z</time>
      </trkpt>
      <trkpt lat="46.83585" lon="6.40141">
        <ele>1083.7</ele>
        <time>2024-01-12T17:20:00Z</time>
      </trkpt>
      <trkpt lat="46.83566" lon="6.40146">
        <ele>1083.9</ele>
        <time>2024-01-12T17:20:07Z</time>
      </trkpt>
      <trkpt lat="46.8355" lon="6.40163">
        <ele>1084.2</ele>
        <time>2024-01-12T17:20:14Z</time>
      </trkpt>
      <trkpt lat="46.83532" lon="6.4017">
        <ele>1084.3</ele>
        <time>2024-01-12T17:20:22Z</time>
      </trkpt>
      <trkpt lat="46.83512" lon="6.40171">
        <ele>1084.4</ele>
        <time>2024-01-12T17:20:29Z</time>
      </trkpt>
      <trkpt lat="46.83505" lon="6.40161">
        <ele>1084.8</ele>
        <time>2024-01-12T17:20:32Z</time>
      </trkpt>
      <trkpt lat="46.83506" lon="6.40134">
        <ele>1083.4</ele>
        <time>2024-01-12T17:20:38Z</time>
      </trkpt>
      <trkpt lat="46.83509" lon="6.40107">
        <ele>1082.9</ele>
        <time>2024-01-12T17:20:45Z</time>
      </trkpt>
      <trkpt lat="46.83513" lon="6.40079">
        <ele>1082.5</ele>
        <time>2024-01-12T17:20:51Z</time>
      </trkpt>
      <trkpt lat="46.83521" lon="6.40051">
        <ele>1082.3</ele>
        <time>2024-01-12T17:20:57Z</time>
      </trkpt>
      <trkpt lat="46.83526" lon="6.40025">
        <ele>1083.4</ele>
        <time>2024-01-12T17:21:03Z</time>
      </trkpt>
      <trkpt lat="46.83519" lon="6.39998">
        <ele>1084.3</ele>
        <time>2024-01-12T17:21:10Z</time>
      </trkpt>
      <trkpt lat="46.83526" lon="6.39971">
        <ele>1083.5</ele>
        <time>2024-01-12T17:21:16Z</time>
      </trkpt>
      <trkpt lat="46.83518" lon="6.39952">
        <ele>1083.1</ele>
        <time>2024-01-12T17:21:24Z</time>
      </trkpt>
      <trkpt lat="46.835" lon="6.39941">
        <ele>1083.6</ele>
        <time>2024-01-12T17:21:32Z</time>
      </trkpt>
      <trkpt lat="46.83483" lon="6.39924">
        <ele>1084.3</ele>
        <time>2024-01-12T17:21:40Z</time>
      </trkpt>
      <trkpt lat="46.83469" lon="6.39917">
        <ele>1085.1</ele>
        <time>2024-01-12T17:21:49Z</time>
      </trkpt>
      <trkpt lat="46.83457" lon="6.39938">
        <ele>1086.9</ele>
        <time>2024-01-12T17:21:56Z</time>
      </trkpt>
      <trkpt lat="46.83438" lon="6.39932">
        <ele>1088.8</ele>
        <time>2024-01-12T17:22:03Z</time>
      </trkpt>
      <trkpt lat="46.83426" lon="6.39907">
        <ele>1089.8</ele>
        <time>2024-01-12T17:22:09Z</time>
      </trkpt>
      <trkpt lat="46.8342" lon="6.39879">
        <ele>1090.3</ele>
        <time>2024-01-12T17:22:15Z</time>
      </trkpt>
      <trkpt lat="46.83412" lon="6.39855">
        <ele>1090.8</ele>
        <time>2024-01-12T17:22:21Z</time>
      </trkpt>
      <trkpt lat="46.83402" lon="6.39832">
        <ele>1091.1</ele>
        <time>2024-01-12T17:22:30Z</time>
      </trkpt>
      <trkpt lat="46.83402" lon="6.39835">
        <ele>1091.2</ele>
        <time>2024-01-12T17:22:33Z</time>
      </trkpt>
      <trkpt lat="46.83414" lon="6.39857">
        <ele>1090.8</ele>
        <time>2024-01-12T17:22:41Z</time>
      </trkpt>
      <trkpt lat="46.83422" lon="6.39881">
        <ele>1090.3</ele>
        <time>2024-01-12T17:22:49Z</time>
      </trkpt>
      <trkpt lat="46.83428" lon="6.39906">
        <ele>1089.8</ele>
        <time>2024-01-12T17:22:57Z</time>
      </trkpt>
      <trkpt lat="46.83435" lon="6.39933">
        <ele>1089.2</ele>
        <time>2024-01-12T17:23:06Z</time>
      </trkpt>
      <trkpt lat="46.8344" lon="6.39959">
        <ele>1088.9</ele>
        <time>2024-01-12T17:23:14Z</time>
      </trkpt>
      <trkpt lat="46.83443" lon="6.39985">
        <ele>1088.3</ele>
        <time>2024-01-12T17:23:22Z</time>
      </trkpt>
      <trkpt lat="46.83447" lon="6.40011">
        <ele>1087.7</ele>
        <time>2024-01-12T17:23:30Z</time>
      </trkpt>
      <trkpt lat="46.83445" lon="6.40041">
        <ele>1086.9</ele>
        <time>2024-01-12T17:23:39Z</time>
      </trkpt>
      <trkpt lat="46.83446" lon="6.4007">
        <ele>1085.8</ele>
        <time>2024-01-12T17:23:47Z</time>
      </trkpt>
      <trkpt lat="46.83448" lon="6.40076">
        <ele>1085.7</ele>
        <time>2024-01-12T17:23:50Z</time>
      </trkpt>
      <trkpt lat="46.8345" lon="6.40074">
        <ele>1085.7</ele>
        <time>2024-01-12T17:23:52Z</time>
      </trkpt>
      <trkpt lat="46.83453" lon="6.40067">
        <ele>1085.7</ele>
        <time>2024-01-12T17:23:56Z</time>
      </trkpt>
    </trkseg>
  </trk>
</gpx>